createdAt,value
2022-08-03T00:01:42.865Z,17.30
2022-08-03T00:04:11.563Z,17.29
2022-08-03T00:06:38.740Z,17.34
2022-08-03T00:09:06.310Z,17.10
2022-08-03T00:11:33.486Z,16.67
2022-08-03T00:14:01.089Z,16.68
2022-08-03T00:16:27.909Z,16.69
2022-08-03T00:18:54.742Z,16.83
2022-08-03T00:21:22.536Z,17.05
2022-08-03T00:23:52.200Z,17.04
2022-08-03T00:26:20.943Z,16.92
2022-08-03T00:28:48.414Z,17.15
2022-08-03T00:31:15.352Z,17.14
2022-08-03T00:33:59.101Z,17.17
2022-08-03T00:36:29.293Z,17.21
2022-08-03T00:38:56.676Z,17.26
2022-08-03T00:41:23.853Z,16.98
2022-08-03T00:43:51.167Z,16.89
2022-08-03T00:46:21.793Z,16.75
2022-08-03T00:48:52.404Z,16.88
2022-08-03T00:51:20.832Z,16.90
2022-08-03T00:53:48.074Z,16.78
2022-08-03T00:56:16.298Z,16.83
2022-08-03T00:58:46.288Z,16.78
2022-08-03T01:01:15.337Z,16.84
2022-08-03T01:03:42.538Z,16.63
2022-08-03T01:06:36.600Z,16.54
2022-08-03T01:09:20.919Z,16.65
2022-08-03T01:12:04.601Z,16.44
2022-08-03T01:14:39.274Z,16.48
2022-08-03T01:17:57.937Z,16.64
2022-08-03T01:20:28.161Z,16.61
2022-08-03T01:23:21.725Z,16.47
2022-08-03T01:26:06.436Z,16.53
2022-08-03T01:29:05.436Z,16.53
2022-08-03T01:32:58.464Z,16.59
2022-08-03T01:34:36.532Z,16.65
2022-08-03T01:37:06.379Z,16.65
2022-08-03T01:39:33.566Z,16.33
2022-08-03T01:42:06.326Z,16.36
2022-08-03T01:44:38.710Z,16.01
2022-08-03T01:47:07.046Z,16.01
2022-08-03T01:49:40.169Z,16.08
2022-08-03T01:52:07.913Z,16.16
2022-08-03T01:54:40.838Z,15.98
2022-08-03T01:57:08.959Z,16.04
2022-08-03T01:59:37.062Z,16.04
2022-08-03T02:02:29.773Z,15.96
2022-08-03T02:04:56.969Z,15.82
2022-08-03T02:07:26.169Z,15.89
2022-08-03T02:09:56.012Z,15.99
2022-08-03T02:12:27.089Z,16.05
2022-08-03T02:14:56.619Z,16.06
2022-08-03T02:17:39.632Z,16.15
2022-08-03T02:20:09.418Z,16.21
2022-08-03T02:22:40.181Z,16.00
2022-08-03T02:25:10.017Z,16.03
2022-08-03T02:28:02.127Z,15.94
2022-08-03T02:30:38.821Z,16.04
2022-08-03T02:33:11.717Z,16.06
2022-08-03T02:35:40.785Z,15.83
2022-08-03T02:38:10.536Z,15.95
2022-08-03T02:40:40.886Z,15.99
2022-08-03T02:43:11.901Z,15.98
2022-08-03T02:45:46.060Z,16.02
2022-08-03T02:48:17.698Z,16.04
2022-08-03T02:50:45.537Z,16.02
2022-08-03T02:53:14.234Z,15.86
2022-08-03T02:55:43.281Z,15.65
2022-08-03T02:58:14.138Z,15.66
2022-08-03T03:00:44.616Z,15.69
2022-08-03T03:03:11.741Z,15.49
2022-08-03T03:05:56.041Z,15.39
2022-08-03T03:08:28.386Z,15.52
2022-08-03T03:11:01.068Z,15.59
2022-08-03T03:13:30.527Z,15.58
2022-08-03T03:16:01.745Z,15.50
2022-08-03T03:18:29.703Z,15.52
2022-08-03T03:20:57.953Z,15.40
2022-08-03T03:23:25.807Z,15.43
2022-08-03T03:25:53.441Z,15.43
2022-08-03T03:28:20.925Z,15.40
2022-08-03T03:30:52.815Z,15.45
2022-08-03T03:33:20.508Z,15.37
2022-08-03T03:35:47.628Z,15.30
2022-08-03T03:38:14.660Z,15.09
2022-08-03T03:40:41.877Z,15.22
2022-08-03T03:43:11.144Z,15.25
2022-08-03T03:45:41.141Z,15.17
2022-08-03T03:48:08.000Z,15.00
2022-08-03T03:50:37.363Z,14.82
2022-08-03T03:53:04.899Z,14.96
2022-08-03T03:55:31.757Z,14.90
2022-08-03T03:57:58.750Z,14.83
2022-08-03T04:00:25.633Z,14.85
2022-08-03T04:02:52.481Z,14.87
2022-08-03T04:05:37.677Z,14.83
2022-08-03T04:08:32.645Z,14.63
2022-08-03T04:11:29.304Z,14.68
2022-08-03T04:14:09.661Z,14.48
2022-08-03T04:16:43.784Z,14.51
2022-08-03T04:19:22.614Z,14.37
2022-08-03T04:21:53.505Z,14.59
2022-08-03T04:24:27.934Z,14.51
2022-08-03T04:26:57.672Z,14.67
2022-08-03T04:29:27.003Z,14.74
2022-08-03T04:31:55.568Z,14.89
2022-08-03T04:34:22.582Z,14.95
2022-08-03T04:36:54.975Z,15.01
2022-08-03T04:39:27.658Z,14.94
2022-08-03T04:42:07.613Z,14.83
2022-08-03T04:44:42.306Z,14.74
2022-08-03T04:47:09.259Z,14.85
2022-08-03T04:49:39.293Z,14.87
2022-08-03T04:52:10.117Z,14.70
2022-08-03T04:54:45.902Z,14.67
2022-08-03T04:57:22.182Z,14.84
2022-08-03T05:00:01.354Z,14.96
2022-08-03T05:02:30.634Z,15.05
2022-08-03T05:04:58.362Z,15.13
2022-08-03T05:07:25.499Z,15.15
2022-08-03T05:09:57.713Z,15.22
2022-08-03T05:12:32.707Z,15.24
2022-08-03T05:15:00.996Z,15.39
2022-08-03T05:17:28.806Z,15.37
2022-08-03T05:19:56.585Z,15.42
2022-08-03T05:22:23.961Z,15.42
2022-08-03T05:24:50.814Z,15.42
2022-08-03T05:27:19.609Z,15.50
2022-08-03T05:29:48.239Z,15.47
2022-08-03T05:32:16.749Z,15.55
2022-08-03T05:34:44.374Z,15.56
2022-08-03T05:37:11.512Z,15.67
2022-08-03T05:39:38.420Z,15.71
2022-08-03T05:42:05.242Z,15.79
2022-08-03T05:44:32.290Z,15.79
2022-08-03T05:46:59.518Z,15.87
2022-08-03T05:49:26.442Z,15.91
2022-08-03T05:52:00.027Z,16.02
2022-08-03T05:54:57.393Z,16.04
2022-08-03T05:57:25.933Z,16.20
2022-08-03T05:59:57.401Z,16.22
2022-08-03T06:02:28.461Z,16.22
2022-08-03T06:04:55.245Z,16.30
2022-08-03T06:07:22.383Z,16.38
2022-08-03T06:10:33.733Z,16.45
2022-08-03T06:12:36.238Z,16.57
2022-08-03T06:15:04.946Z,16.68
2022-08-03T06:17:37.672Z,16.77
2022-08-03T06:20:06.296Z,16.93
2022-08-03T06:22:33.118Z,17.01
2022-08-03T06:25:04.067Z,17.13
2022-08-03T06:27:36.432Z,17.28
2022-08-03T06:30:05.505Z,17.41
2022-08-03T06:32:32.456Z,17.57
2022-08-03T06:35:00.149Z,17.66
2022-08-03T06:37:27.346Z,17.78
2022-08-03T06:39:54.350Z,17.93
2022-08-03T06:42:21.494Z,18.03
2022-08-03T06:44:49.909Z,18.19
2022-08-03T06:47:16.789Z,18.25
2022-08-03T06:49:43.681Z,18.41
2022-08-03T06:52:37.879Z,18.51
2022-08-03T06:55:06.533Z,18.66
2022-08-03T06:57:33.375Z,18.90
2022-08-03T07:00:07.694Z,19.00
2022-08-03T07:02:39.850Z,19.20
2022-08-03T07:05:08.052Z,19.38
2022-08-03T07:07:34.899Z,19.58
2022-08-03T07:10:02.383Z,19.75
2022-08-03T07:12:30.842Z,19.94
2022-08-03T07:15:01.625Z,20.13
2022-08-03T07:17:35.541Z,20.27
2022-08-03T07:20:04.869Z,20.46
2022-08-03T07:22:31.705Z,20.70
2022-08-03T07:24:58.908Z,20.88
2022-08-03T07:27:30.469Z,21.00
2022-08-03T07:29:58.892Z,21.28
2022-08-03T07:32:26.314Z,21.47
2022-08-03T07:34:57.082Z,21.68
2022-08-03T07:37:27.229Z,21.92
2022-08-03T07:39:54.009Z,22.10
2022-08-03T07:42:20.845Z,22.29
2022-08-03T07:44:47.595Z,22.46
2022-08-03T07:47:24.016Z,22.73
2022-08-03T07:49:51.025Z,22.94
2022-08-03T07:52:37.128Z,23.12
2022-08-03T07:55:08.301Z,23.39
2022-08-03T07:57:35.802Z,23.59
2022-08-03T08:00:06.118Z,23.76
2022-08-03T08:02:32.900Z,23.96
2022-08-03T08:05:05.002Z,24.08
2022-08-03T08:07:32.498Z,24.35
2022-08-03T08:09:59.265Z,24.55
2022-08-03T08:12:26.063Z,24.56
2022-08-03T08:14:52.915Z,24.80
2022-08-03T08:17:20.125Z,24.96
2022-08-03T08:19:49.018Z,25.11
2022-08-03T08:22:19.746Z,25.25
2022-08-03T08:24:57.118Z,25.34
2022-08-03T08:27:23.891Z,25.47
2022-08-03T08:29:55.125Z,25.56
2022-08-03T08:32:24.479Z,25.66
2022-08-03T08:34:51.225Z,25.64
2022-08-03T08:37:18.151Z,25.79
2022-08-03T08:39:44.886Z,25.93
2022-08-03T08:42:11.833Z,26.01
2022-08-03T08:44:38.666Z,26.14
2022-08-03T08:47:06.023Z,26.18
2022-08-03T08:49:36.175Z,26.18
2022-08-03T08:52:05.145Z,26.21
2022-08-03T08:55:00.193Z,26.48
2022-08-03T08:57:51.197Z,26.82
2022-08-03T09:00:18.840Z,26.98
2022-08-03T09:02:46.751Z,27.03
2022-08-03T09:05:19.198Z,27.03
2022-08-03T09:07:47.737Z,27.23
2022-08-03T09:10:22.064Z,27.37
2022-08-03T09:12:52.226Z,27.26
2022-08-03T09:15:22.134Z,27.17
2022-08-03T09:17:51.419Z,27.40
2022-08-03T09:20:20.164Z,27.44
2022-08-03T09:23:51.592Z,27.57
2022-08-03T09:26:00.119Z,27.71
2022-08-03T09:29:01.287Z,27.92
2022-08-03T09:31:36.110Z,28.30
2022-08-03T09:34:09.184Z,28.11
2022-08-03T09:36:47.012Z,28.38
2022-08-03T09:39:40.398Z,28.40
2022-08-03T09:42:18.545Z,28.27
2022-08-03T09:44:50.869Z,28.56
2022-08-03T09:47:44.712Z,28.61
2022-08-03T09:50:13.064Z,28.79
2022-08-03T09:52:50.127Z,28.90
2022-08-03T09:56:34.645Z,29.02
2022-08-03T09:58:10.791Z,28.71
2022-08-03T10:00:57.723Z,29.23
2022-08-03T10:03:27.945Z,29.36
2022-08-03T10:05:59.577Z,29.35
2022-08-03T10:08:26.983Z,29.12
2022-08-03T10:10:54.792Z,29.20
2022-08-03T10:13:23.474Z,29.27
2022-08-03T10:16:22.769Z,29.51
2022-08-03T10:18:38.118Z,29.27
2022-08-03T10:21:08.777Z,29.58
2022-08-03T10:23:38.529Z,29.78
2022-08-03T10:26:08.299Z,29.79
2022-08-03T10:28:41.565Z,29.99
2022-08-03T10:31:14.039Z,30.35
2022-08-03T10:33:51.126Z,30.41
2022-08-03T10:36:24.998Z,30.50
2022-08-03T10:38:53.808Z,30.85
2022-08-03T10:41:22.697Z,30.83
2022-08-03T10:44:20.080Z,30.37
2022-08-03T10:46:50.458Z,30.50
2022-08-03T10:49:33.537Z,30.64
2022-08-03T10:52:01.305Z,30.72
2022-08-03T10:55:03.582Z,31.02
2022-08-03T10:58:01.006Z,31.04
2022-08-03T11:00:30.532Z,30.89
2022-08-03T11:03:10.263Z,31.08
2022-08-03T11:05:49.503Z,30.90
2022-08-03T11:08:26.358Z,30.84
2022-08-03T11:11:01.692Z,31.02
2022-08-03T11:13:32.044Z,31.08
2022-08-03T11:16:06.019Z,31.38
2022-08-03T11:18:33.537Z,31.46
2022-08-03T11:21:00.865Z,30.77
2022-08-03T11:24:03.994Z,30.68
2022-08-03T11:26:33.016Z,30.94
2022-08-03T11:29:29.587Z,31.06
2022-08-03T11:31:56.932Z,31.23
2022-08-03T11:34:24.764Z,31.49
2022-08-03T11:37:28.522Z,31.64
2022-08-03T11:39:57.356Z,31.69
2022-08-03T11:42:24.104Z,31.63
2022-08-03T11:44:52.273Z,31.69
2022-08-03T11:47:21.516Z,31.58
2022-08-03T11:49:51.198Z,31.52
2022-08-03T11:52:19.575Z,31.65
2022-08-03T11:54:57.197Z,31.58
2022-08-03T11:59:01.553Z,31.81
2022-08-03T12:00:29.611Z,32.28
2022-08-03T12:03:04.742Z,32.65
2022-08-03T12:05:52.329Z,32.81
2022-08-03T12:08:31.093Z,32.27
2022-08-03T12:11:01.438Z,32.13
2022-08-03T12:14:44.261Z,32.43
2022-08-03T12:16:25.930Z,32.55
2022-08-03T12:19:06.665Z,32.60
2022-08-03T12:21:34.638Z,32.61
2022-08-03T12:24:04.344Z,33.07
2022-08-03T12:26:58.556Z,33.48
2022-08-03T12:29:26.437Z,33.73
2022-08-03T12:31:53.420Z,33.68
2022-08-03T12:34:20.210Z,33.74
2022-08-03T12:36:59.190Z,33.74
2022-08-03T12:39:30.795Z,33.55
2022-08-03T12:41:58.053Z,33.67
2022-08-03T12:44:43.190Z,33.34
2022-08-03T12:47:11.926Z,33.71
2022-08-03T12:49:54.346Z,33.93
2022-08-03T12:52:23.627Z,34.06
2022-08-03T12:54:58.676Z,33.80
2022-08-03T12:57:25.646Z,34.04
2022-08-03T12:59:56.024Z,34.30
2022-08-03T13:02:26.287Z,34.37
2022-08-03T13:04:55.255Z,34.76
2022-08-03T13:07:23.254Z,35.09
2022-08-03T13:09:56.799Z,34.72
2022-08-03T13:12:30.051Z,34.74
2022-08-03T13:14:59.991Z,34.73
2022-08-03T13:17:28.053Z,34.38
2022-08-03T13:19:55.002Z,34.59
2022-08-03T13:22:26.242Z,35.14
2022-08-03T13:24:58.489Z,35.38
2022-08-03T13:28:04.013Z,35.60
2022-08-03T13:30:14.533Z,35.89
2022-08-03T13:32:51.779Z,36.13
2022-08-03T13:35:18.647Z,36.35
2022-08-03T13:37:47.395Z,36.28
2022-08-03T13:40:15.949Z,36.06
2022-08-03T13:42:42.813Z,36.13
2022-08-03T13:45:11.395Z,36.17
2022-08-03T13:47:38.269Z,36.04
2022-08-03T13:50:05.592Z,35.88
2022-08-03T13:52:36.866Z,36.03
2022-08-03T13:55:06.638Z,36.14
2022-08-03T13:58:02.820Z,36.40
2022-08-03T14:00:28.052Z,36.51
2022-08-03T14:03:03.833Z,36.81
2022-08-03T14:05:34.261Z,37.24
2022-08-03T14:08:04.011Z,37.75
2022-08-03T14:10:31.309Z,38.11
2022-08-03T14:13:00.492Z,38.59
2022-08-03T14:15:28.693Z,38.69
2022-08-03T14:17:58.603Z,39.29
2022-08-03T14:20:38.809Z,39.75
2022-08-03T14:23:14.960Z,39.35
2022-08-03T14:25:44.541Z,39.06
2022-08-03T14:28:19.602Z,39.05
2022-08-03T14:30:46.731Z,39.23
2022-08-03T14:33:13.485Z,39.68
2022-08-03T14:35:40.699Z,39.69
2022-08-03T14:38:07.650Z,39.42
2022-08-03T14:40:34.539Z,38.34
2022-08-03T14:43:02.523Z,38.18
2022-08-03T14:45:29.433Z,37.66
2022-08-03T14:50:30.492Z,37.60
2022-08-03T14:50:48.307Z,37.93
2022-08-03T14:53:15.722Z,37.95
2022-08-03T14:55:50.511Z,38.14
2022-08-03T14:58:23.053Z,38.02
2022-08-03T15:00:51.585Z,37.77
2022-08-03T15:03:25.811Z,37.73
2022-08-03T15:05:54.355Z,37.65
2022-08-03T15:08:22.339Z,37.30
2022-08-03T15:10:50.646Z,37.12
2022-08-03T15:13:18.006Z,37.09
2022-08-03T15:15:45.096Z,37.15
2022-08-03T15:18:12.105Z,36.70
2022-08-03T15:20:44.949Z,36.83
2022-08-03T15:23:14.558Z,37.16
2022-08-03T15:26:28.903Z,37.39
2022-08-03T15:28:29.712Z,37.50
2022-08-03T15:30:56.935Z,37.81
2022-08-03T15:33:23.845Z,37.88
2022-08-03T15:35:50.673Z,37.88
2022-08-03T15:38:17.959Z,37.64
2022-08-03T15:40:45.476Z,37.72
2022-08-03T15:43:12.518Z,37.66
2022-08-03T15:45:41.185Z,37.69
2022-08-03T15:48:09.114Z,37.62
2022-08-03T15:50:36.219Z,37.44
2022-08-03T15:53:03.590Z,36.94
2022-08-03T15:55:31.317Z,36.91
2022-08-03T15:59:10.143Z,36.94
2022-08-03T16:00:45.057Z,36.80
2022-08-03T16:03:11.854Z,36.42
2022-08-03T16:05:38.797Z,36.12
2022-08-03T16:08:09.016Z,35.92
2022-08-03T16:10:38.725Z,35.72
2022-08-03T16:13:05.532Z,35.47
2022-08-03T16:15:32.430Z,35.43
2022-08-03T16:18:08.692Z,35.35
2022-08-03T16:20:35.684Z,35.53
2022-08-03T16:23:11.088Z,35.62
2022-08-03T16:25:40.132Z,35.59
2022-08-03T16:28:13.594Z,35.33
2022-08-03T16:30:43.396Z,34.74
2022-08-03T16:33:16.589Z,34.75
2022-08-03T16:35:46.173Z,34.63
2022-08-03T16:38:18.518Z,34.04
2022-08-03T16:40:47.777Z,33.90
2022-08-03T16:43:18.411Z,33.68
2022-08-03T16:45:47.246Z,33.58
2022-08-03T16:48:15.904Z,33.33
2022-08-03T16:50:42.789Z,33.29
2022-08-03T16:53:16.666Z,33.27
2022-08-03T16:55:53.625Z,33.43
2022-08-03T16:58:34.432Z,33.63
2022-08-03T17:01:21.878Z,33.28
2022-08-03T17:04:02.283Z,32.95
2022-08-03T17:06:35.473Z,33.43
2022-08-03T17:09:10.141Z,33.33
2022-08-03T17:11:47.331Z,33.63
2022-08-03T17:14:17.231Z,33.47
2022-08-03T17:16:52.570Z,33.38
2022-08-03T17:19:23.695Z,33.58
2022-08-03T17:22:04.901Z,33.88
2022-08-03T17:24:41.305Z,33.83
2022-08-03T17:28:41.834Z,33.59
2022-08-03T17:30:14.982Z,33.57
2022-08-03T17:32:57.704Z,33.52
2022-08-03T17:35:36.619Z,33.23
2022-08-03T17:38:10.299Z,32.97
2022-08-03T17:40:47.972Z,32.94
2022-08-03T17:44:13.453Z,32.63
2022-08-03T17:46:10.572Z,32.60
2022-08-03T17:48:41.172Z,32.47
2022-08-03T17:51:20.477Z,32.15
2022-08-03T17:54:05.025Z,32.03
2022-08-03T17:58:01.448Z,31.74
2022-08-03T18:00:43.892Z,31.37
2022-08-03T18:03:59.399Z,31.06
2022-08-03T18:06:36.757Z,30.66
2022-08-03T18:10:04.391Z,30.06
2022-08-03T18:11:58.646Z,30.19
2022-08-03T18:14:43.217Z,30.08
2022-08-03T18:17:55.621Z,29.91
2022-08-03T18:20:34.418Z,29.83
2022-08-03T18:23:25.062Z,29.42
2022-08-03T18:26:02.060Z,29.30
2022-08-03T18:28:29.843Z,29.32
2022-08-03T18:30:57.637Z,29.26
2022-08-03T18:34:18.951Z,29.09
2022-08-03T18:36:21.704Z,28.90
2022-08-03T18:38:59.529Z,28.80
2022-08-03T18:41:33.167Z,28.61
2022-08-03T18:44:08.087Z,28.56
2022-08-03T18:46:49.506Z,28.38
2022-08-03T18:49:46.859Z,28.24
2022-08-03T18:52:27.845Z,28.09
2022-08-03T18:56:01.362Z,27.85
2022-08-03T18:59:08.759Z,27.66
2022-08-03T19:01:59.782Z,27.44
2022-08-03T19:04:32.483Z,27.35
2022-08-03T19:07:09.177Z,27.21
2022-08-03T19:09:49.456Z,27.06
2022-08-03T19:12:39.854Z,26.88
2022-08-03T19:15:10.391Z,26.73
2022-08-03T19:17:53.264Z,26.54
2022-08-03T19:20:28.777Z,26.46
2022-08-03T19:22:58.689Z,26.15
2022-08-03T19:25:34.317Z,25.99
2022-08-03T19:28:06.102Z,25.96
2022-08-03T19:30:53.361Z,25.88
2022-08-03T19:33:21.890Z,25.40
2022-08-03T19:35:55.089Z,25.35
2022-08-03T19:38:27.391Z,25.25
2022-08-03T19:41:03.679Z,25.27
2022-08-03T19:46:31.652Z,24.65
2022-08-03T19:49:15.029Z,24.66
2022-08-03T19:52:01.561Z,24.67
2022-08-03T19:54:54.210Z,24.64
2022-08-03T19:57:25.087Z,24.57
2022-08-03T19:59:54.080Z,24.47
2022-08-03T20:02:26.766Z,24.41
2022-08-03T20:04:57.183Z,24.23
2022-08-03T20:07:26.478Z,24.06
2022-08-03T20:09:56.409Z,24.06
2022-08-03T20:12:28.094Z,24.05
2022-08-03T20:14:57.768Z,23.96
2022-08-03T20:20:12.646Z,23.81
2022-08-03T20:22:45.547Z,23.71
2022-08-03T20:28:14.227Z,23.47
2022-08-03T20:30:44.344Z,23.37
2022-08-03T20:33:19.011Z,23.26
2022-08-03T20:35:49.260Z,23.21
2022-08-03T20:38:18.551Z,23.17
2022-08-03T20:40:47.462Z,23.08
2022-08-03T20:43:15.749Z,22.40
2022-08-03T20:45:59.651Z,22.41
2022-08-03T20:48:31.140Z,22.24
2022-08-03T20:50:58.377Z,22.02
2022-08-03T20:53:56.901Z,21.82
2022-08-03T20:56:15.155Z,21.59
2022-08-03T20:58:50.515Z,21.63
2022-08-03T21:01:18.059Z,21.71
2022-08-03T21:03:55.799Z,21.84
2022-08-03T21:06:27.837Z,21.87
2022-08-03T21:09:05.224Z,21.71
2022-08-03T21:11:41.932Z,21.22
2022-08-03T21:13:02.803Z,24.82
2022-08-03T21:13:06.786Z,23.47
2022-08-03T21:13:10.448Z,23.89
2022-08-03T21:14:59.210Z,21.07
2022-08-03T21:17:39.899Z,20.83
2022-08-03T21:20:10.897Z,21.04
2022-08-03T21:22:40.130Z,21.21
2022-08-03T21:25:09.541Z,21.05
2022-08-03T21:27:37.356Z,21.21
2022-08-03T21:30:10.255Z,21.33
2022-08-03T21:32:40.442Z,21.41
2022-08-03T21:35:11.169Z,21.41
2022-08-03T21:37:40.189Z,21.13
2022-08-03T21:40:10.818Z,20.58
2022-08-03T21:42:39.547Z,20.55
2022-08-03T21:45:17.157Z,20.84
2022-08-03T21:47:45.374Z,20.90
2022-08-03T21:50:13.876Z,20.87
2022-08-03T21:52:44.769Z,20.40
2022-08-03T21:55:18.408Z,20.41
2022-08-03T21:57:53.261Z,20.09
2022-08-03T22:00:23.181Z,20.16
2022-08-03T22:02:57.433Z,20.37
2022-08-03T22:05:28.958Z,20.37
2022-08-03T22:08:09.995Z,20.41
2022-08-03T22:10:37.355Z,20.42
2022-08-03T22:13:04.233Z,20.41
2022-08-03T22:15:31.313Z,20.49
2022-08-03T22:18:03.470Z,20.52
2022-08-03T22:20:30.786Z,20.40
2022-08-03T22:23:02.793Z,20.41
2022-08-03T22:25:34.637Z,20.35
2022-08-03T22:28:07.958Z,20.43
2022-08-03T22:30:35.286Z,20.39
2022-08-03T22:33:05.784Z,20.12
2022-08-03T22:35:47.837Z,19.62
2022-08-03T22:38:18.874Z,19.49
2022-08-03T22:40:48.932Z,19.76
2022-08-03T22:43:16.714Z,19.86
2022-08-03T22:46:08.900Z,19.95
2022-08-03T22:48:36.624Z,19.94
2022-08-03T22:51:08.985Z,19.68
2022-08-03T22:53:36.460Z,19.51
2022-08-03T22:56:03.908Z,19.13
2022-08-03T22:58:30.749Z,18.94
2022-08-03T23:01:09.852Z,18.88
2022-08-03T23:04:00.837Z,19.03
2022-08-03T23:06:37.146Z,19.25
2022-08-03T23:09:10.048Z,19.36
2022-08-03T23:11:45.487Z,19.24
2022-08-03T23:14:16.615Z,19.10
2022-08-03T23:16:45.804Z,18.87
2022-08-03T23:19:16.983Z,18.90
2022-08-03T23:21:52.913Z,18.61
2022-08-03T23:24:30.159Z,18.43
2022-08-03T23:26:57.693Z,18.31
2022-08-03T23:29:26.771Z,18.28
2022-08-03T23:31:54.551Z,18.53
2022-08-03T23:34:41.529Z,18.47
2022-08-03T23:37:09.742Z,18.16
2022-08-03T23:39:37.482Z,18.02
2022-08-03T23:42:05.549Z,17.88
2022-08-03T23:44:34.858Z,18.06
2022-08-03T23:47:01.799Z,18.23
2022-08-03T23:49:28.614Z,18.37
2022-08-03T23:52:18.382Z,18.23
2022-08-03T23:55:13.645Z,18.46
2022-08-03T23:58:04.685Z,18.61
